Circleville, Texas
Current Conditions -  °F | °C
As of 1:51 PM on Friday 31 Oct 2014 (Local Time) from KATT Reporting Station
Clear Clear  
Wind Chill: 74°   Ceiling: Unl
Heat Index: 74°   Visibility: 10mi
Dew Point: 41°   Wind: 13mph
Humidity: 30%   Direction: 30°NNE
Pressure: 30.26"   Gusts: 23mph
Location:  30.265°N, 97.9624°W
Report Text: KATT 311851Z AUTO 03011G20KT 350V070 10SM CLR 23/05 A3026 RMK AO2 SLP237 T02330050
Loading
Personal Weather Stations






























Interactive Weather Map
Tropical Storm Tracking
New forecast layout! Learn more

10-Day Weather Forecast

Advertisements
Track Severe Weather on mobile